• Join FlightAware (Why Join?)
  • Login
  • US Flag 
06:41AM EST


 

Airport Tracker/Info


-or-


 

Live Flight TrackerFlight Track Log ✈ ASA234 ✈ 12-May-2013 ✈ KSAN - MMPR / PVR

Flight Track Log - Related Links

Times and Time Zones

All times are in EDT time to prevent confusion due to time zone crossing. See the ASA234 flight status page for this flight to view local times or setup timezone preferences in your user account.

Time Position Orientation Groundspeed Altitude Reporting Facility
EDT Latitude Longitude Course Direction KTS MPH feet Rate Location/Type
01:12PM 32.7500 -117.2667 270° West 228 262 2,400  Level Southern California TRACON
01:13PM 32.7500 -117.3500 270° West 277 319 5,200 2,640 Climbing Southern California TRACON
01:14PM 32.7117 -117.3589 191° South 278 320 6,800 2,880 Climbing Los Angeles Center
01:15PM 32.6639 -117.2881 129° Southeast 285 328 9,900 2,400 Climbing Los Angeles Center
01:16PM 32.6303 -117.1944 113° Southeast 312 359 11,800 2,400 Climbing Los Angeles Center
01:16PM 32.6167 -117.1500 110° East 346 398 13,300 3,060 Climbing Southern California TRACON
01:17PM 32.5919 -117.0908 116° Southeast 340 391 15,000 2,520 Climbing Los Angeles Center
01:20PM 32.5205 -116.9244 121° Southeast  Level FlightAware Approximate
01:27PM 31.9663 -116.2254 137° Southeast  Level FlightAware Approximate
01:28PM 31.8824 -116.1314 120° Southeast  Level FlightAware Approximate
01:29PM 31.8052 -116.0311 135° Southeast  Level FlightAware Approximate
01:30PM 31.7243 -115.9336 132° Southeast  Level FlightAware Approximate
01:31PM 31.6461 -115.8331 132° Southeast  Level FlightAware Approximate
01:32PM 31.5666 -115.7342 134° Southeast  Level FlightAware Approximate
01:33PM 31.4867 -115.6357 134° Southeast  Level FlightAware Approximate
01:34PM 31.4068 -115.5374 134° Southeast  Level FlightAware Approximate
01:35PM 31.3268 -115.4392 134° Southeast  Level FlightAware Approximate
01:36PM 31.2467 -115.3413 134° Southeast  Level FlightAware Approximate
01:37PM 31.1665 -115.2434 134° Southeast  Level FlightAware Approximate
01:38PM 31.0863 -115.1458 134° Southeast  Level FlightAware Approximate
01:39PM 31.0060 -115.0483 134° Southeast  Level FlightAware Approximate
01:40PM 30.9256 -114.9510 134° Southeast  Level FlightAware Approximate
01:41PM 30.8449 -114.8541 134° Southeast  Level FlightAware Approximate
01:42PM 30.7640 -114.7576 134° Southeast  Level FlightAware Approximate
01:43PM 30.6830 -114.6612 134° Southeast  Level FlightAware Approximate
01:44PM 30.6019 -114.5650 134° Southeast  Level FlightAware Approximate
01:45PM 30.5207 -114.4690 134° Southeast  Level FlightAware Approximate
01:46PM 30.4395 -114.3731 134° Southeast  Level FlightAware Approximate
01:47PM 30.3582 -114.2774 135° Southeast  Level FlightAware Approximate
01:48PM 30.2768 -114.1818 135° Southeast  Level FlightAware Approximate
01:49PM 30.1954 -114.0864 135° Southeast  Level FlightAware Approximate
01:50PM 30.1139 -113.9912 135° Southeast  Level FlightAware Approximate
01:51PM 30.0325 -113.8958 134° Southeast  Level FlightAware Approximate
01:52PM 29.9519 -113.7998 134° Southeast  Level FlightAware Approximate
01:53PM 29.8711 -113.7039 134° Southeast  Level FlightAware Approximate
01:54PM 29.7903 -113.6082 134° Southeast  Level FlightAware Approximate
01:55PM 29.7089 -113.5133 135° Southeast  Level FlightAware Approximate
01:56PM 29.6273 -113.4186 135° Southeast  Level FlightAware Approximate
01:57PM 29.5457 -113.3240 135° Southeast  Level FlightAware Approximate
01:58PM 29.4640 -113.2296 135° Southeast  Level FlightAware Approximate
01:59PM 29.3822 -113.1354 135° Southeast  Level FlightAware Approximate
02:00PM 29.3004 -113.0412 135° Southeast  Level FlightAware Approximate
02:01PM 29.2185 -112.9473 135° Southeast  Level FlightAware Approximate
02:02PM 29.1366 -112.8535 135° Southeast  Level FlightAware Approximate
02:03PM 29.0545 -112.7598 135° Southeast  Level FlightAware Approximate
02:04PM 28.9722 -112.6666 135° Southeast  Level FlightAware Approximate
02:05PM 28.8895 -112.5739 135° Southeast  Level FlightAware Approximate
02:06PM 28.8068 -112.4812 136° Southeast  Level FlightAware Approximate
02:07PM 28.7240 -112.3888 136° Southeast  Level FlightAware Approximate
02:08PM 28.6411 -112.2964 136° Southeast  Level FlightAware Approximate
02:09PM 28.5582 -112.2043 136° Southeast  Level FlightAware Approximate
02:10PM 28.4753 -112.1122 136° Southeast  Level FlightAware Approximate
02:11PM 28.3922 -112.0203 136° Southeast  Level FlightAware Approximate
02:12PM 28.3091 -111.9286 136° Southeast  Level FlightAware Approximate
02:13PM 28.2260 -111.8370 136° Southeast  Level FlightAware Approximate
02:14PM 28.1427 -111.7455 136° Southeast  Level FlightAware Approximate
02:15PM 28.0595 -111.6542 136° Southeast  Level FlightAware Approximate
02:16PM 27.9761 -111.5630 136° Southeast  Level FlightAware Approximate
02:17PM 27.8927 -111.4720 136° Southeast  Level FlightAware Approximate
02:18PM 27.8093 -111.3811 136° Southeast  Level FlightAware Approximate
02:19PM 27.7260 -111.2900 136° Southeast  Level FlightAware Approximate
02:20PM 27.6433 -111.1984 136° Southeast  Level FlightAware Approximate
02:21PM 27.5605 -111.1069 136° Southeast  Level FlightAware Approximate
02:22PM 27.4777 -111.0155 136° Southeast  Level FlightAware Approximate
02:23PM 27.3948 -110.9243 136° Southeast  Level FlightAware Approximate
02:24PM 27.3118 -110.8332 136° Southeast  Level FlightAware Approximate
02:25PM 27.2288 -110.7423 136° Southeast  Level FlightAware Approximate
02:26PM 27.1457 -110.6515 136° Southeast  Level FlightAware Approximate
02:27PM 27.0626 -110.5609 136° Southeast  Level FlightAware Approximate
02:28PM 26.9793 -110.4704 136° Southeast  Level FlightAware Approximate
02:29PM 26.8961 -110.3800 136° Southeast  Level FlightAware Approximate
02:30PM 26.8128 -110.2897 136° Southeast  Level FlightAware Approximate
02:31PM 26.7294 -110.1996 136° Southeast  Level FlightAware Approximate
02:32PM 26.6460 -110.1096 136° Southeast  Level FlightAware Approximate
02:33PM 26.5625 -110.0198 136° Southeast  Level FlightAware Approximate
02:34PM 26.4789 -109.9301 136° Southeast  Level FlightAware Approximate
02:35PM 26.3953 -109.8405 136° Southeast  Level FlightAware Approximate
02:36PM 26.3117 -109.7510 136° Southeast  Level FlightAware Approximate
02:37PM 26.2279 -109.6617 136° Southeast  Level FlightAware Approximate
02:38PM 26.1442 -109.5725 136° Southeast  Level FlightAware Approximate
02:39PM 26.0604 -109.4834 136° Southeast  Level FlightAware Approximate
02:40PM 25.9765 -109.3945 136° Southeast  Level FlightAware Approximate
02:41PM 25.8925 -109.3056 136° Southeast  Level FlightAware Approximate
02:42PM 25.8086 -109.2169 136° Southeast  Level FlightAware Approximate
02:43PM 25.7245 -109.1284 136° Southeast  Level FlightAware Approximate
02:44PM 25.6410 -109.0393 133° Southeast  Level FlightAware Approximate
02:45PM 25.5616 -108.9457 133° Southeast  Level FlightAware Approximate
02:46PM 25.4822 -108.8522 133° Southeast  Level FlightAware Approximate
02:47PM 25.4027 -108.7589 133° Southeast  Level FlightAware Approximate
02:48PM 25.3217 -108.6672 135° Southeast  Level FlightAware Approximate
02:49PM 25.2396 -108.5768 135° Southeast  Level FlightAware Approximate
02:50PM 25.1576 -108.4863 135° Southeast  Level FlightAware Approximate
02:51PM 25.0758 -108.3957 135° Southeast  Level FlightAware Approximate
02:52PM 24.9939 -108.3052 135° Southeast  Level FlightAware Approximate
02:53PM 24.9120 -108.2149 135° Southeast  Level FlightAware Approximate
02:54PM 24.8329 -108.1216 132° Southeast  Level FlightAware Approximate
02:55PM 24.7553 -108.0268 132° Southeast  Level FlightAware Approximate
02:56PM 24.6748 -107.9351 135° Southeast  Level FlightAware Approximate
02:57PM 24.5931 -107.8447 135° Southeast  Level FlightAware Approximate
02:58PM 24.5114 -107.7544 135° Southeast  Level FlightAware Approximate
02:59PM 24.4296 -107.6642 135° Southeast  Level FlightAware Approximate
03:00PM 24.3482 -107.5736 135° Southeast  Level FlightAware Approximate
03:01PM 24.2669 -107.4831 135° Southeast  Level FlightAware Approximate
03:02PM 24.1855 -107.3926 135° Southeast  Level FlightAware Approximate
03:03PM 24.1041 -107.3023 135° Southeast  Level FlightAware Approximate
03:04PM 24.0226 -107.2121 135° Southeast  Level FlightAware Approximate
03:05PM 23.9411 -107.1220 135° Southeast  Level FlightAware Approximate
03:06PM 23.8595 -107.0320 135° Southeast  Level FlightAware Approximate
03:07PM 23.7779 -106.9421 135° Southeast  Level FlightAware Approximate
03:08PM 23.6962 -106.8523 135° Southeast  Level FlightAware Approximate
03:09PM 23.6143 -106.7629 135° Southeast  Level FlightAware Approximate
03:10PM 23.5317 -106.6742 135° Southeast  Level FlightAware Approximate
03:11PM 23.4490 -106.5857 135° Southeast  Level FlightAware Approximate
03:12PM 23.3663 -106.4973 136° Southeast  Level FlightAware Approximate
03:13PM 23.2836 -106.4089 136° Southeast  Level FlightAware Approximate
03:14PM 23.2008 -106.3207 136° Southeast  Level FlightAware Approximate
03:15PM 23.1089 -106.2473 157° South  Level FlightAware Approximate
03:16PM 23.0026 -106.1972 157° South  Level FlightAware Approximate
03:17PM 22.8962 -106.1472 157° South  Level FlightAware Approximate
03:18PM 22.7874 -106.1045 161° South  Level FlightAware Approximate
03:19PM 22.6776 -106.0644 160° South  Level FlightAware Approximate
03:20PM 22.5689 -106.0209 160° South  Level FlightAware Approximate
03:21PM 22.4614 -105.9743 159° South  Level FlightAware Approximate
03:22PM 22.3531 -105.9296 159° South  Level FlightAware Approximate
03:23PM 22.2448 -105.8851 159° South  Level FlightAware Approximate
03:24PM 22.1363 -105.8411 160° South  Level FlightAware Approximate
03:25PM 22.0277 -105.7977 160° South  Level FlightAware Approximate
03:26PM 21.9191 -105.7542 160° South  Level FlightAware Approximate
03:27PM 21.8103 -105.7111 160° South  Level FlightAware Approximate
03:28PM 21.7015 -105.6683 160° South  Level FlightAware Approximate
03:29PM 21.5927 -105.6255 160° South  Level FlightAware Approximate
03:30PM 21.4838 -105.5828 160° South  Level FlightAware Approximate
03:31PM 21.3754 -105.5390 157° South  Level FlightAware Approximate
03:32PM 21.2683 -105.4915 158° South  Level FlightAware Approximate
03:33PM 21.1605 -105.4460 159° South  Level FlightAware Approximate
03:34PM 21.0525 -105.4010 159° South  Level FlightAware Approximate
03:35PM 20.9440 -105.3576 160° South  Level FlightAware Approximate
03:36PM 20.8345 -105.3170 163° South  Level FlightAware Approximate
03:37PM 20.7269 -105.2801 155° Southeast  Level FlightAware Approximate
03:38PM 20.6801 -105.2542 North  Level Estimated
03:39PM 20.6801 -105.2542 North  Level Estimated
03:40PM 20.6801 -105.2542 North  Level Estimated
03:41PM 20.6801 -105.2542 North  Level Estimated
03:42PM 20.6801 -105.2542 North  Level Estimated
03:43PM 20.6801 -105.2542 North  Level Estimated
03:44PM 20.6801 -105.2542 North  Level Estimated
03:45PM 20.6801 -105.2542 North  Level Estimated
03:46PM 20.6801 -105.2542 North  Level Estimated